Главная страница
METAR-TAF:

METAR-TAF

Аэропорты :

Туношна

Ярославль, Россия

широта: 57-33-38N, долгота: 040-09-27E, высота над уровнем моря: 87 м

Текущие метеонаблюдения

Эта сводка был подготовлена 24 минут назад, в 06:00 UTC
Ветер 6 Узел от северно-северо-западный
Температура 20°C
Влажность 64%
Давление 1012 hPa
Видимость 10 км и более
Нет облачности ниже 1500 м, и нет кучево-дождевой облачности

METAR: UUDL 230600Z 33003MPS CAVOK 20/13 Q1012 R23/010060 NOSIG RMK QFE751

Время: 09:24 (06:24 UTC)

Прогноз

Эта сводка был подготовлена 1 час и 24 минут назад, в 05:00 UTC
Прогноз действительный с 23-го 06 UTC до 24-го 06 UTC
Ветер 2 Узел переменных направлений
Видимость 10 км и более
Отдельные облака на высоте 4000 фута

TAF: UUDL 230500Z 2306/2406 VRB01MPS 9999 SCT040

Метеонаблюдения и прогнозы для более 4000 аэропортов (сводки METAR и TAF).

Имеющиеся станции представлены на карте желтыми и красными точками.

Чтобы увидеть название станции, наведите на нее мышь.

Затем щелкните, чтобы увидеть метеонаблюдения и метеопрогнозы.

Управление картой: чтобы увеличить масштаб, щелкните зеленые кнопки с черным крестиком; чтобы уменьшить масштаб, щелкните зеленую кнопку с тире; для просмотра соседних карт щелкайте зеленые стрелки.


METAR-TAF: